Time;durP1;ratioP1;P1;durP2;ratioP2;P2;SDS_P1;SDS_P2;PMS_P1;PMS_P2;Temp;Humidity;BMP_temperature;BMP_pressure;BME280_temperature;BME280_humidity;BME280_pressure;Samples;Min_cycle;Max_cycle;Signal;HPM_P1;HPM_P2
2024/02/12 00:01:55;;;;;;;5.65;2.05;;;;;;;;;;5012791;28;20089;-58
2024/02/12 00:04:21;;;;;;;5.80;2.03;;;;;;;;;;5018038;28;20091;-60
2024/02/12 00:06:46;;;;;;;5.43;1.70;;;;;;;;;;5020668;28;20391;-59
2024/02/12 00:09:12;;;;;;;5.95;1.90;;;;;;;;;;5026024;28;20029;-59
2024/02/12 00:11:37;;;;;;;6.10;2.10;;;;;;;;;;5030984;28;20059;-59
2024/02/12 00:14:04;;;;;;;5.85;2.08;;;;;;;;;;5036113;28;20052;-59
2024/02/12 00:16:29;;;;;;;5.00;1.90;;;;;;;;;;5035234;28;20064;-60
2024/02/12 00:18:55;;;;;;;6.13;2.30;;;;;;;;;;5039543;28;20029;-60
2024/02/12 00:21:20;;;;;;;4.63;1.90;;;;;;;;;;5032838;28;20087;-59
2024/02/12 00:23:46;;;;;;;4.73;1.80;;;;;;;;;;5035105;28;20444;-59
2024/02/12 00:26:11;;;;;;;7.30;2.15;;;;;;;;;;5026078;28;20026;-58
2024/02/12 00:28:36;;;;;;;5.15;2.05;;;;;;;;;;5037567;28;20025;-60
2024/02/12 00:31:02;;;;;;;5.40;1.77;;;;;;;;;;5047256;28;20055;-59
2024/02/12 00:33:28;;;;;;;6.53;2.40;;;;;;;;;;5045788;28;20453;-60
2024/02/12 00:35:54;;;;;;;6.50;1.92;;;;;;;;;;5032823;28;20075;-59
2024/02/12 00:38:19;;;;;;;5.18;2.10;;;;;;;;;;5031140;28;20413;-59
2024/02/12 00:40:44;;;;;;;5.20;2.30;;;;;;;;;;5022912;28;20048;-60
2024/02/12 00:43:10;;;;;;;4.97;2.07;;;;;;;;;;5026079;28;20437;-60
2024/02/12 00:45:35;;;;;;;5.70;2.08;;;;;;;;;;5030996;28;20028;-60
2024/02/12 00:48:01;;;;;;;6.57;2.00;;;;;;;;;;5021384;28;20535;-59
2024/02/12 00:50:27;;;;;;;4.97;2.28;;;;;;;;;;5030695;28;20025;-59
2024/02/12 00:52:52;;;;;;;5.43;1.83;;;;;;;;;;5015114;28;20064;-61
2024/02/12 00:55:18;;;;;;;5.00;2.13;;;;;;;;;;5021618;28;20014;-59
2024/02/12 00:57:43;;;;;;;5.97;2.10;;;;;;;;;;5024343;28;20018;-59
2024/02/12 01:00:12;;;;;;;5.15;2.17;;;;;;;;;;5028595;28;20037;-59
2024/02/12 01:02:40;;;;;;;5.90;2.28;;;;;;;;;;5014086;28;20049;-59
2024/02/12 01:05:06;;;;;;;5.80;2.20;;;;;;;;;;5030279;28;20026;-59
2024/02/12 01:07:31;;;;;;;5.63;2.00;;;;;;;;;;5020358;28;20436;-59
2024/02/12 01:09:57;;;;;;;5.03;2.10;;;;;;;;;;5019367;28;20024;-57
2024/02/12 01:12:23;;;;;;;5.80;2.10;;;;;;;;;;5013249;28;20032;-59
2024/02/12 01:14:49;;;;;;;4.72;1.98;;;;;;;;;;5017320;28;20029;-60
2024/02/12 01:17:16;;;;;;;4.82;2.20;;;;;;;;;;5019902;28;20044;-59
2024/02/12 01:19:44;;;;;;;5.45;2.10;;;;;;;;;;5022290;28;20026;-59
2024/02/12 01:22:09;;;;;;;5.35;1.80;;;;;;;;;;5018375;28;20025;-59
2024/02/12 01:24:34;;;;;;;5.60;2.03;;;;;;;;;;5024385;28;20032;-60
2024/02/12 01:26:59;;;;;;;4.95;2.10;;;;;;;;;;5035041;28;20556;-58
2024/02/12 01:29:29;;;;;;;5.18;1.80;;;;;;;;;;5035391;28;20049;-59
2024/02/12 01:31:54;;;;;;;5.25;1.92;;;;;;;;;;5037035;28;20017;-59
2024/02/12 01:34:20;;;;;;;4.72;1.95;;;;;;;;;;5040175;28;20021;-59
2024/02/12 01:36:45;;;;;;;6.50;2.10;;;;;;;;;;5023316;28;20018;-59
2024/02/12 01:39:10;;;;;;;4.65;1.90;;;;;;;;;;5037629;28;20144;-60
2024/02/12 01:41:37;;;;;;;4.90;1.67;;;;;;;;;;5041083;28;20057;-59
2024/02/12 01:44:04;;;;;;;7.03;2.03;;;;;;;;;;5034216;28;20448;-59
2024/02/12 01:46:29;;;;;;;5.47;2.00;;;;;;;;;;5026818;28;20096;-59
2024/02/12 01:48:55;;;;;;;5.55;1.80;;;;;;;;;;5025808;28;20029;-59
2024/02/12 01:51:20;;;;;;;5.57;1.90;;;;;;;;;;5024797;28;20460;-60
2024/02/12 01:53:47;;;;;;;6.00;2.13;;;;;;;;;;5021176;28;20505;-60
2024/02/12 01:56:12;;;;;;;4.63;1.65;;;;;;;;;;5030114;28;20029;-59
2024/02/12 01:58:38;;;;;;;5.20;1.50;;;;;;;;;;5020992;28;20414;-60
2024/02/12 02:01:05;;;;;;;4.05;1.88;;;;;;;;;;5030891;28;20056;-60
2024/02/12 02:03:32;;;;;;;6.13;1.75;;;;;;;;;;5022680;28;20079;-58
2024/02/12 02:05:58;;;;;;;5.22;1.60;;;;;;;;;;5016351;28;20034;-59
2024/02/12 02:08:39;;;;;;;4.45;1.70;;;;;;;;;;5022462;28;20030;-59
2024/02/12 02:11:04;;;;;;;4.32;1.85;;;;;;;;;;5016048;28;20025;-58
2024/02/12 02:13:30;;;;;;;4.43;1.73;;;;;;;;;;5022077;28;20687;-59
2024/02/12 02:15:56;;;;;;;5.30;1.83;;;;;;;;;;5023007;28;20500;-58
2024/02/12 02:18:21;;;;;;;5.30;1.90;;;;;;;;;;5029871;28;20580;-59
2024/02/12 02:20:46;;;;;;;5.25;1.60;;;;;;;;;;5032052;28;20654;-58
2024/02/12 02:23:11;;;;;;;5.23;2.07;;;;;;;;;;5031281;28;20128;-59
2024/02/12 02:25:37;;;;;;;5.35;1.70;;;;;;;;;;5034254;28;20044;-60
2024/02/12 02:28:04;;;;;;;3.92;1.52;;;;;;;;;;5017401;28;20065;-57
2024/02/12 02:30:29;;;;;;;6.15;1.88;;;;;;;;;;5034367;28;20018;-58
2024/02/12 02:32:55;;;;;;;5.47;1.73;;;;;;;;;;5029183;28;20033;-58
2024/02/12 02:35:20;;;;;;;4.40;1.87;;;;;;;;;;5032195;28;20029;-60
2024/02/12 02:37:45;;;;;;;4.90;1.70;;;;;;;;;;5033630;28;20029;-57
2024/02/12 02:40:12;;;;;;;4.87;1.77;;;;;;;;;;5027150;28;20459;-57
2024/02/12 02:42:38;;;;;;;5.25;1.90;;;;;;;;;;5033311;28;20116;-58
2024/02/12 02:45:04;;;;;;;4.57;1.75;;;;;;;;;;5016835;28;20022;-59
2024/02/12 02:47:29;;;;;;;6.15;1.98;;;;;;;;;;5028040;28;20084;-59
2024/02/12 02:49:57;;;;;;;3.95;1.60;;;;;;;;;;5022182;28;20048;-58
2024/02/12 02:52:24;;;;;;;5.75;1.60;;;;;;;;;;5026758;28;20033;-59
2024/02/12 02:54:49;;;;;;;5.57;1.73;;;;;;;;;;5019515;28;20100;-58
2024/02/12 02:57:15;;;;;;;4.13;1.40;;;;;;;;;;5013825;28;20101;-58
2024/02/12 02:59:42;;;;;;;3.33;1.33;;;;;;;;;;5019848;28;20092;-58
2024/02/12 03:02:12;;;;;;;5.90;1.90;;;;;;;;;;5020421;28;20021;-58
2024/02/12 03:04:38;;;;;;;5.15;1.70;;;;;;;;;;5014173;28;20410;-59
2024/02/12 03:07:06;;;;;;;6.10;2.08;;;;;;;;;;5014132;28;20078;-58
2024/02/12 03:09:32;;;;;;;4.40;1.40;;;;;;;;;;5023337;28;20528;-58
2024/02/12 03:11:57;;;;;;;3.90;1.33;;;;;;;;;;5017857;28;20022;-59
2024/02/12 03:14:24;;;;;;;6.13;1.55;;;;;;;;;;5013620;28;20028;-58
2024/02/12 03:16:49;;;;;;;;;;;;;;;;;;5025093;28;20026;-59
2024/02/12 03:19:14;;;;;;;5.53;1.50;;;;;;;;;;5031691;28;19909;-58
2024/02/12 03:21:39;;;;;;;4.38;1.40;;;;;;;;;;5029356;28;20021;-58
2024/02/12 03:24:04;;;;;;;6.18;1.25;;;;;;;;;;5030939;28;20112;-59
2024/02/12 03:26:31;;;;;;;4.53;1.35;;;;;;;;;;5024373;28;20083;-58
2024/02/12 03:28:56;;;;;;;3.78;1.40;;;;;;;;;;5016582;28;20630;-61
2024/02/12 03:31:21;;;;;;;5.05;1.45;;;;;;;;;;5021001;28;20026;-59
2024/02/12 03:33:49;;;;;;;4.57;1.30;;;;;;;;;;5032103;28;20030;-59
2024/02/12 03:36:15;;;;;;;4.45;1.42;;;;;;;;;;5031040;28;20018;-58
2024/02/12 03:38:40;;;;;;;5.10;1.50;;;;;;;;;;5029484;28;20033;-59
2024/02/12 03:41:05;;;;;;;4.97;1.40;;;;;;;;;;5032297;28;20017;-59
2024/02/12 03:43:30;;;;;;;6.18;1.50;;;;;;;;;;5013818;28;20034;-58
2024/02/12 03:45:56;;;;;;;3.83;1.50;;;;;;;;;;5013995;28;20100;-58
2024/02/12 04:02:03;;;;;;;4.80;1.50;;;;;;;;;;5020613;28;20032;-59
2024/02/12 04:04:30;;;;;;;4.53;1.50;;;;;;;;;;5015055;28;20497;-58
2024/02/12 04:06:56;;;;;;;4.30;1.50;;;;;;;;;;5020634;28;20025;-58
2024/02/12 04:09:21;;;;;;;5.13;1.73;;;;;;;;;;5030441;28;20028;-57
2024/02/12 04:11:47;;;;;;;4.60;1.63;;;;;;;;;;5014137;28;20029;-59
2024/02/12 04:14:12;;;;;;;4.85;1.30;;;;;;;;;;5022207;28;20045;-58
2024/02/12 04:16:38;;;;;;;3.67;1.20;;;;;;;;;;5032125;28;20026;-59
2024/02/12 04:19:03;;;;;;;5.03;1.60;;;;;;;;;;5027900;28;20037;-59
2024/02/12 04:21:31;;;;;;;3.80;1.50;;;;;;;;;;5031007;28;20124;-58
2024/02/12 04:23:57;;;;;;;5.13;1.30;;;;;;;;;;5026565;28;20437;-59
2024/02/12 04:26:22;;;;;;;5.97;1.42;;;;;;;;;;5046252;28;20032;-59
2024/02/12 04:28:48;;;;;;;3.60;1.27;;;;;;;;;;5037788;28;20543;-58
2024/02/12 04:31:14;;;;;;;4.40;1.50;;;;;;;;;;5023495;28;20029;-58
2024/02/12 04:33:40;;;;;;;4.63;1.30;;;;;;;;;;5032016;28;20397;-57
2024/02/12 04:36:08;;;;;;;4.05;1.40;;;;;;;;;;5017059;28;20026;-57
2024/02/12 04:38:33;;;;;;;3.65;1.27;;;;;;;;;;5013055;28;20088;-57
2024/02/12 04:40:59;;;;;;;6.13;1.52;;;;;;;;;;5031856;28;20022;-57
2024/02/12 04:43:24;;;;;;;4.90;1.20;;;;;;;;;;5032193;28;20085;-58
2024/02/12 04:45:52;;;;;;;4.93;1.20;;;;;;;;;;5023900;28;20025;-59
2024/02/12 04:48:17;;;;;;;4.70;1.60;;;;;;;;;;5024218;28;20618;-58
2024/02/12 04:50:45;;;;;;;4.22;1.40;;;;;;;;;;5030792;28;20104;-57
2024/02/12 04:53:10;;;;;;;4.95;1.50;;;;;;;;;;5030885;28;20029;-58
2024/02/12 04:55:36;;;;;;;4.10;1.40;;;;;;;;;;5020263;28;20141;-58
2024/02/12 04:58:02;;;;;;;3.60;1.38;;;;;;;;;;5024586;28;20025;-59
2024/02/12 05:00:28;;;;;;;5.00;1.30;;;;;;;;;;5015175;28;20032;-59
2024/02/12 05:02:53;;;;;;;4.25;1.30;;;;;;;;;;5015920;28;20025;-57
2024/02/12 05:05:19;;;;;;;4.68;1.30;;;;;;;;;;5029202;28;20022;-59
2024/02/12 05:07:45;;;;;;;4.03;1.43;;;;;;;;;;5029567;28;20109;-58
2024/02/12 05:10:10;;;;;;;2.90;1.10;;;;;;;;;;5011490;28;20030;-59
2024/02/12 05:12:35;;;;;;;4.43;1.30;;;;;;;;;;5021166;28;20028;-57
2024/02/12 05:15:02;;;;;;;3.80;1.20;;;;;;;;;;5030162;28;20113;-58
2024/02/12 05:17:52;;;;;;;4.13;1.30;;;;;;;;;;5028923;28;20032;-57
2024/02/12 05:22:59;;;;;;;3.17;1.20;;;;;;;;;;5018452;28;20105;-58
2024/02/12 05:25:25;;;;;;;3.50;1.10;;;;;;;;;;5021658;28;20461;-58
2024/02/12 05:27:50;;;;;;;3.72;1.08;;;;;;;;;;5022488;28;20026;-58
2024/02/12 05:30:15;;;;;;;4.57;1.25;;;;;;;;;;5028969;28;20018;-59
2024/02/12 05:32:40;;;;;;;4.07;1.20;;;;;;;;;;5021635;28;20026;-59
2024/02/12 05:35:05;;;;;;;3.30;1.20;;;;;;;;;;5026416;28;20045;-58
2024/02/12 05:37:30;;;;;;;4.40;1.10;;;;;;;;;;5017823;28;20129;-58
2024/02/12 05:39:59;;;;;;;3.30;1.25;;;;;;;;;;5012119;28;20509;-58
2024/02/12 05:42:24;;;;;;;3.95;1.10;;;;;;;;;;5020535;28;20027;-59
2024/02/12 05:44:49;;;;;;;3.83;1.20;;;;;;;;;;5028916;28;20096;-58
2024/02/12 05:47:15;;;;;;;3.15;1.02;;;;;;;;;;5014056;28;20362;-58
2024/02/12 05:49:40;;;;;;;3.47;1.20;;;;;;;;;;5030285;28;20013;-58
2024/02/12 05:52:06;;;;;;;4.25;1.20;;;;;;;;;;5029368;28;20022;-59
2024/02/12 05:54:31;;;;;;;3.92;1.17;;;;;;;;;;5029273;28;20009;-58
2024/02/12 05:56:57;;;;;;;3.77;1.20;;;;;;;;;;5012685;28;20474;-57
2024/02/12 05:59:22;;;;;;;3.28;1.20;;;;;;;;;;5030584;28;20485;-58
2024/02/12 06:01:47;;;;;;;4.60;1.10;;;;;;;;;;5030857;28;20025;-58
2024/02/12 06:04:13;;;;;;;4.88;1.10;;;;;;;;;;5027020;28;20044;-58
2024/02/12 06:06:39;;;;;;;3.05;1.10;;;;;;;;;;5029297;28;20040;-59
2024/02/12 06:09:04;;;;;;;3.53;1.20;;;;;;;;;;5011303;28;20018;-57
2024/02/12 06:11:29;;;;;;;4.50;1.43;;;;;;;;;;5012381;28;20022;-58
2024/02/12 06:13:54;;;;;;;3.90;1.30;;;;;;;;;;5017493;28;20504;-57
2024/02/12 06:16:20;;;;;;;2.63;1.08;;;;;;;;;;5020517;28;20029;-59
2024/02/12 06:18:46;;;;;;;3.63;1.27;;;;;;;;;;5027927;28;20071;-59
2024/02/12 06:21:11;;;;;;;4.28;1.23;;;;;;;;;;5016376;28;20410;-59
2024/02/12 06:23:37;;;;;;;5.47;1.33;;;;;;;;;;5028431;28;20029;-57
2024/02/12 06:26:02;;;;;;;5.10;1.30;;;;;;;;;;5022437;28;20103;-58
2024/02/12 06:28:27;;;;;;;4.78;1.30;;;;;;;;;;5027149;28;20049;-58
2024/02/12 06:30:52;;;;;;;4.27;1.10;;;;;;;;;;5015563;28;20018;-58
2024/02/12 06:33:17;;;;;;;3.45;1.20;;;;;;;;;;5024883;28;20062;-57
2024/02/12 06:35:43;;;;;;;3.55;1.00;;;;;;;;;;5020845;28;20033;-59
2024/02/12 06:38:08;;;;;;;4.07;1.02;;;;;;;;;;5021875;28;20060;-57
2024/02/12 06:40:33;;;;;;;2.85;0.82;;;;;;;;;;5024812;28;20370;-58
2024/02/12 06:43:04;;;;;;;2.60;0.90;;;;;;;;;;5025336;28;20033;-59
2024/02/12 06:45:29;;;;;;;3.45;1.00;;;;;;;;;;5027158;28;20029;-59
2024/02/12 06:47:55;;;;;;;3.00;0.90;;;;;;;;;;5021337;28;20029;-58
2024/02/12 06:50:20;;;;;;;3.97;1.00;;;;;;;;;;5023886;28;20112;-58
2024/02/12 06:52:45;;;;;;;3.87;1.00;;;;;;;;;;5028664;28;20052;-58
2024/02/12 06:55:11;;;;;;;5.07;1.30;;;;;;;;;;5018934;28;20025;-57
2024/02/12 06:57:36;;;;;;;3.72;1.17;;;;;;;;;;5031262;28;20071;-58
2024/02/12 07:00:03;;;;;;;3.38;1.02;;;;;;;;;;5027530;28;20602;-58
2024/02/12 07:02:28;;;;;;;6.00;1.30;;;;;;;;;;5018126;28;20053;-57
2024/02/12 07:04:53;;;;;;;3.75;1.10;;;;;;;;;;5032910;28;20460;-57
2024/02/12 07:07:18;;;;;;;3.30;1.00;;;;;;;;;;5028031;28;20045;-57
2024/02/12 07:09:43;;;;;;;3.00;1.00;;;;;;;;;;5026222;28;20129;-57
2024/02/12 07:12:09;;;;;;;5.82;1.00;;;;;;;;;;5031818;28;20374;-58
2024/02/12 07:14:34;;;;;;;2.55;0.90;;;;;;;;;;5030463;28;20018;-57
2024/02/12 07:16:59;;;;;;;5.10;1.10;;;;;;;;;;5030705;28;20168;-57
2024/02/12 07:19:24;;;;;;;5.20;1.20;;;;;;;;;;5031290;28;20481;-60
2024/02/12 07:21:50;;;;;;;2.88;0.80;;;;;;;;;;5027849;28;20064;-57
2024/02/12 07:24:16;;;;;;;3.03;0.73;;;;;;;;;;5025926;28;20020;-58
2024/02/12 07:26:42;;;;;;;4.40;0.85;;;;;;;;;;5025087;28;20028;-58
2024/02/12 07:29:08;;;;;;;;;;;;;;;;;;5032433;28;20438;-58
2024/02/12 07:31:33;;;;;;;2.35;0.80;;;;;;;;;;5033222;28;20312;-57
2024/02/12 07:34:00;;;;;;;1.45;0.60;;;;;;;;;;5034498;28;20623;-58
2024/02/12 07:36:25;;;;;;;2.83;0.88;;;;;;;;;;5031861;28;20068;-58
2024/02/12 07:38:50;;;;;;;3.15;0.90;;;;;;;;;;5035311;28;20024;-57
2024/02/12 07:41:15;;;;;;;3.60;1.10;;;;;;;;;;5034410;28;20200;-57
2024/02/12 07:43:42;;;;;;;3.92;1.10;;;;;;;;;;5030986;28;20513;-58
2024/02/12 07:46:07;;;;;;;3.95;0.88;;;;;;;;;;5037967;28;20029;-60
2024/02/12 07:48:33;;;;;;;2.35;0.90;;;;;;;;;;5033874;28;20036;-59
2024/02/12 07:50:58;;;;;;;4.07;1.00;;;;;;;;;;5034426;28;20481;-61
2024/02/12 07:53:25;;;;;;;3.40;0.80;;;;;;;;;;5035348;28;20026;-58
2024/02/12 07:55:51;;;;;;;2.92;0.90;;;;;;;;;;5036413;28;20480;-57
2024/02/12 07:58:17;;;;;;;4.10;0.90;;;;;;;;;;5038141;28;20028;-57
2024/02/12 08:00:42;;;;;;;3.10;0.80;;;;;;;;;;5027228;28;20334;-57
2024/02/12 08:03:07;;;;;;;2.67;0.93;;;;;;;;;;5041275;28;20028;-56
2024/02/12 08:05:36;;;;;;;3.30;0.80;;;;;;;;;;5032798;28;20024;-58
2024/02/12 08:08:02;;;;;;;3.15;0.93;;;;;;;;;;5034222;28;20652;-58
2024/02/12 08:10:27;;;;;;;4.17;1.13;;;;;;;;;;5032774;28;20025;-57
2024/02/12 08:12:52;;;;;;;2.87;0.93;;;;;;;;;;5032093;28;20105;-58
2024/02/12 08:15:17;;;;;;;2.90;0.85;;;;;;;;;;5034464;28;20399;-58
2024/02/12 08:17:43;;;;;;;3.57;1.20;;;;;;;;;;5036479;28;20033;-58
2024/02/12 08:20:08;;;;;;;3.10;0.87;;;;;;;;;;5032431;28;20355;-58
2024/02/12 08:22:33;;;;;;;3.13;0.80;;;;;;;;;;5040345;28;20017;-57
2024/02/12 08:24:58;;;;;;;3.22;1.00;;;;;;;;;;5039314;28;20021;-58
2024/02/12 08:27:24;;;;;;;2.60;1.00;;;;;;;;;;5033907;28;20037;-57
2024/02/12 08:29:51;;;;;;;3.28;0.90;;;;;;;;;;5030699;28;20389;-58
2024/02/12 08:32:16;;;;;;;3.85;1.25;;;;;;;;;;5033615;28;20021;-59
2024/02/12 08:34:41;;;;;;;3.03;1.00;;;;;;;;;;5034033;28;20032;-59
2024/02/12 08:37:08;;;;;;;2.63;1.02;;;;;;;;;;5039268;28;20052;-59
2024/02/12 08:39:34;;;;;;;3.42;1.15;;;;;;;;;;5031515;28;20104;-58
2024/02/12 08:41:59;;;;;;;4.45;1.10;;;;;;;;;;5040319;28;20104;-58
2024/02/12 08:44:26;;;;;;;4.55;1.20;;;;;;;;;;5043172;28;20096;-57
2024/02/12 08:46:51;;;;;;;4.05;1.30;;;;;;;;;;5039117;28;20025;-57
2024/02/12 08:49:16;;;;;;;5.60;1.23;;;;;;;;;;5029953;28;20029;-58
2024/02/12 08:51:42;;;;;;;3.70;1.03;;;;;;;;;;5039613;28;20029;-57
2024/02/12 08:54:07;;;;;;;3.13;0.95;;;;;;;;;;5038778;28;20021;-63
2024/02/12 08:56:33;;;;;;;4.10;1.00;;;;;;;;;;5046691;28;20028;-57
2024/02/12 08:58:59;;;;;;;4.05;1.00;;;;;;;;;;5036568;28;20044;-58
2024/02/12 09:01:25;;;;;;;4.35;0.90;;;;;;;;;;5034263;28;20100;-57
2024/02/12 09:03:50;;;;;;;4.70;0.90;;;;;;;;;;5031756;28;20060;-57
2024/02/12 09:06:16;;;;;;;2.97;1.00;;;;;;;;;;5029397;28;20114;-57
2024/02/12 09:08:44;;;;;;;4.60;0.98;;;;;;;;;;5037190;28;20442;-57
2024/02/12 09:11:10;;;;;;;2.58;0.90;;;;;;;;;;5032578;28;20030;-57
2024/02/12 09:13:36;;;;;;;3.20;0.90;;;;;;;;;;5032335;28;20025;-58
2024/02/12 09:16:01;;;;;;;3.53;1.10;;;;;;;;;;5032119;28;20071;-58
2024/02/12 09:18:27;;;;;;;3.42;0.98;;;;;;;;;;5031992;28;20017;-58
2024/02/12 09:20:55;;;;;;;4.03;1.10;;;;;;;;;;5038169;28;20040;-59
2024/02/12 09:23:21;;;;;;;3.85;0.90;;;;;;;;;;5031270;28;20022;-58
2024/02/12 09:25:47;;;;;;;3.85;1.00;;;;;;;;;;5033365;28;20033;-57
2024/02/12 09:28:12;;;;;;;5.35;0.90;;;;;;;;;;5032123;28;20386;-57
2024/02/12 09:30:37;;;;;;;2.72;0.95;;;;;;;;;;5024097;28;20024;-57
2024/02/12 09:33:02;;;;;;;2.60;0.80;;;;;;;;;;5027704;28;20573;-58
2024/02/12 09:35:28;;;;;;;2.60;0.80;;;;;;;;;;5026086;28;20044;-56
2024/02/12 09:37:54;;;;;;;3.38;0.98;;;;;;;;;;5023577;28;20028;-57
2024/02/12 09:40:21;;;;;;;2.90;0.90;;;;;;;;;;5030759;28;20017;-58
2024/02/12 09:42:47;;;;;;;4.38;1.00;;;;;;;;;;5035049;28;20504;-57
2024/02/12 09:45:14;;;;;;;4.55;0.90;;;;;;;;;;5038140;28;20026;-57
2024/02/12 09:47:43;;;;;;;2.45;0.73;;;;;;;;;;5040368;28;20034;-59
2024/02/12 09:50:09;;;;;;;3.05;0.90;;;;;;;;;;5038128;28;20045;-57
2024/02/12 09:52:34;;;;;;;3.70;1.40;;;;;;;;;;5034265;28;20493;-58
2024/02/12 09:55:02;;;;;;;4.35;1.13;;;;;;;;;;5040546;28;20481;-58
2024/02/12 09:57:28;;;;;;;3.15;1.00;;;;;;;;;;5038772;28;20203;-57
2024/02/12 09:59:56;;;;;;;4.37;0.93;;;;;;;;;;5034896;28;20056;-58
2024/02/12 10:02:21;;;;;;;3.88;1.08;;;;;;;;;;5031560;28;20113;-58
2024/02/12 10:04:49;;;;;;;4.20;1.10;;;;;;;;;;5046849;28;20031;-58
2024/02/12 10:07:14;;;;;;;3.67;0.93;;;;;;;;;;5043837;28;20033;-58
2024/02/12 10:09:40;;;;;;;4.07;1.33;;;;;;;;;;5047788;28;20036;-58
2024/02/12 10:12:06;;;;;;;2.95;0.82;;;;;;;;;;5043710;28;20037;-57
2024/02/12 10:14:33;;;;;;;4.70;1.10;;;;;;;;;;5048001;28;20026;-59
2024/02/12 10:17:01;;;;;;;3.65;1.00;;;;;;;;;;5032027;28;20052;-58
2024/02/12 10:19:27;;;;;;;3.38;1.08;;;;;;;;;;5041547;28;20100;-58
2024/02/12 10:21:54;;;;;;;2.13;0.90;;;;;;;;;;5034504;28;20045;-58
2024/02/12 10:24:19;;;;;;;3.42;1.02;;;;;;;;;;5027848;28;20021;-56
2024/02/12 10:26:48;;;;;;;2.90;1.00;;;;;;;;;;5033778;28;20091;-58
2024/02/12 10:29:14;;;;;;;4.78;1.10;;;;;;;;;;5027073;28;20088;-57
2024/02/12 10:31:39;;;;;;;3.40;1.03;;;;;;;;;;5033905;28;20018;-57
2024/02/12 10:34:06;;;;;;;4.55;1.17;;;;;;;;;;5032477;28;20029;-57
2024/02/12 10:36:31;;;;;;;5.10;1.30;;;;;;;;;;5034206;28;20017;-58
2024/02/12 10:38:59;;;;;;;4.20;1.00;;;;;;;;;;5035022;28;20020;-57
2024/02/12 10:41:28;;;;;;;3.03;1.00;;;;;;;;;;5030639;28;20483;-58
2024/02/12 10:43:54;;;;;;;2.72;0.90;;;;;;;;;;5034286;28;20036;-58
2024/02/12 10:46:24;;;;;;;2.97;0.90;;;;;;;;;;5034498;28;20428;-57
2024/02/12 10:48:50;;;;;;;3.28;0.90;;;;;;;;;;5034331;28;20362;-58
2024/02/12 10:51:16;;;;;;;3.17;1.00;;;;;;;;;;5032243;28;20106;-59
2024/02/12 10:53:41;;;;;;;3.13;0.98;;;;;;;;;;5034679;28;20040;-57
2024/02/12 10:56:08;;;;;;;3.00;1.00;;;;;;;;;;5033974;28;20022;-59
2024/02/12 10:58:33;;;;;;;3.40;1.00;;;;;;;;;;5033874;28;20013;-58
2024/02/12 11:00:58;;;;;;;2.72;1.00;;;;;;;;;;5034065;28;20099;-58
2024/02/12 11:03:39;;;;;;;3.40;0.95;;;;;;;;;;5033410;28;20390;-58
2024/02/12 11:06:10;;;;;;;4.00;1.10;;;;;;;;;;5031269;28;21394;-58
2024/02/12 11:08:36;;;;;;;3.70;1.20;;;;;;;;;;5025380;28;20026;-59
2024/02/12 11:11:03;;;;;;;3.63;1.10;;;;;;;;;;5026957;28;20017;-59
2024/02/12 11:13:37;;;;;;;4.95;1.02;;;;;;;;;;5029590;28;20032;-57
2024/02/12 11:16:03;;;;;;;4.18;1.23;;;;;;;;;;5032898;28;20017;-57
2024/02/12 11:18:34;;;;;;;5.90;1.10;;;;;;;;;;5033074;28;20026;-58
2024/02/12 11:20:59;;;;;;;5.03;1.15;;;;;;;;;;5033746;28;20115;-59
2024/02/12 11:23:25;;;;;;;3.40;1.10;;;;;;;;;;5024552;28;20422;-58
2024/02/12 11:25:52;;;;;;;3.63;1.17;;;;;;;;;;5034412;28;20030;-56
2024/02/12 11:28:17;;;;;;;4.28;1.17;;;;;;;;;;5032917;28;20382;-57
2024/02/12 11:30:42;;;;;;;3.57;1.00;;;;;;;;;;5032040;28;20087;-58
2024/02/12 11:33:08;;;;;;;5.22;1.40;;;;;;;;;;5031756;28;20017;-58
2024/02/12 11:35:34;;;;;;;7.15;1.35;;;;;;;;;;5033859;28;20029;-58
2024/02/12 11:38:00;;;;;;;4.65;1.30;;;;;;;;;;5033324;28;20105;-59
2024/02/12 11:40:25;;;;;;;3.47;1.17;;;;;;;;;;5032490;28;20773;-58
2024/02/12 11:42:53;;;;;;;3.05;1.00;;;;;;;;;;5032411;28;20017;-58
2024/02/12 11:45:19;;;;;;;2.45;0.85;;;;;;;;;;5033059;28;20017;-57
2024/02/12 11:47:46;;;;;;;4.38;1.10;;;;;;;;;;5031076;28;20041;-58
2024/02/12 11:50:25;;;;;;;3.92;1.10;;;;;;;;;;5033114;28;20478;-57
2024/02/12 11:52:53;;;;;;;4.95;1.50;;;;;;;;;;5028249;28;20532;-58
2024/02/12 11:55:18;;;;;;;3.92;1.60;;;;;;;;;;5022407;28;20028;-58
2024/02/12 11:57:44;;;;;;;3.67;1.20;;;;;;;;;;5026558;28;20092;-58
2024/02/12 12:00:19;;;;;;;3.80;1.20;;;;;;;;;;5032553;28;20025;-57
2024/02/12 12:02:46;;;;;;;3.47;1.23;;;;;;;;;;5026170;28;20385;-58
2024/02/12 12:05:18;;;;;;;2.92;0.90;;;;;;;;;;5022608;28;20386;-60
2024/02/12 12:07:43;;;;;;;3.13;1.15;;;;;;;;;;5031317;28;20026;-57
2024/02/12 12:10:10;;;;;;;3.75;1.08;;;;;;;;;;5033015;28;20108;-59
2024/02/12 12:12:35;;;;;;;;;;;;;;;;;;5032565;28;20025;-59
2024/02/12 12:15:05;;;;;;;3.45;1.13;;;;;;;;;;5023313;28;20008;-59
2024/02/12 12:17:30;;;;;;;4.05;1.10;;;;;;;;;;5027072;28;20029;-58
2024/02/12 12:19:57;;;;;;;3.43;1.03;;;;;;;;;;5032597;28;20505;-58
2024/02/12 12:22:22;;;;;;;2.63;1.00;;;;;;;;;;5031699;28;20025;-58
2024/02/12 12:24:47;;;;;;;2.92;1.02;;;;;;;;;;5028409;28;20036;-58
2024/02/12 12:27:22;;;;;;;4.03;1.40;;;;;;;;;;5032374;28;20037;-59
2024/02/12 12:29:47;;;;;;;3.05;1.00;;;;;;;;;;5033282;28;20024;-57
2024/02/12 12:32:14;;;;;;;3.72;1.00;;;;;;;;;;5030214;28;20017;-57
2024/02/12 12:34:39;;;;;;;4.75;1.38;;;;;;;;;;5030987;28;20021;-57
2024/02/12 12:37:04;;;;;;;3.30;1.20;;;;;;;;;;5032148;28;20075;-58
2024/02/12 12:39:32;;;;;;;2.63;1.00;;;;;;;;;;5029595;28;20025;-59
2024/02/12 12:41:57;;;;;;;3.20;1.08;;;;;;;;;;5012070;28;20050;-57
2024/02/12 12:44:22;;;;;;;3.70;1.35;;;;;;;;;;5022779;28;20025;-57
2024/02/12 12:46:47;;;;;;;3.95;1.25;;;;;;;;;;5031968;28;20037;-57
2024/02/12 12:49:13;;;;;;;4.37;1.60;;;;;;;;;;5028388;28;20547;-58
2024/02/12 12:51:38;;;;;;;3.30;1.20;;;;;;;;;;5031135;28;20018;-57
2024/02/12 12:54:04;;;;;;;6.70;1.50;;;;;;;;;;5030394;28;20018;-58
2024/02/12 12:56:29;;;;;;;3.97;1.30;;;;;;;;;;5031751;28;20466;-58
2024/02/12 12:58:56;;;;;;;5.22;1.38;;;;;;;;;;5030768;28;20028;-57
2024/02/12 13:01:21;;;;;;;4.40;1.42;;;;;;;;;;5030961;28;20025;-58
2024/02/12 13:03:49;;;;;;;3.70;1.52;;;;;;;;;;5035184;28;20017;-58
2024/02/12 13:06:14;;;;;;;6.13;1.52;;;;;;;;;;5019631;28;20037;-58
2024/02/12 13:08:42;;;;;;;4.10;1.70;;;;;;;;;;5013979;28;20021;-58
2024/02/12 13:11:07;;;;;;;5.20;1.60;;;;;;;;;;5031567;28;20017;-58
2024/02/12 13:13:34;;;;;;;4.97;1.50;;;;;;;;;;5031264;28;20023;-57
2024/02/12 13:15:59;;;;;;;4.80;1.95;;;;;;;;;;5029612;28;20108;-58
2024/02/12 13:18:29;;;;;;;5.90;1.80;;;;;;;;;;5032474;28;20060;-58
2024/02/12 13:20:54;;;;;;;4.78;1.80;;;;;;;;;;5031536;28;20025;-58
2024/02/12 13:23:20;;;;;;;4.57;1.43;;;;;;;;;;5031095;28;20323;-58
2024/02/12 13:25:46;;;;;;;4.15;1.70;;;;;;;;;;5032282;28;20036;-58
2024/02/12 13:28:11;;;;;;;5.28;1.65;;;;;;;;;;5030967;28;20022;-57
2024/02/12 13:30:39;;;;;;;3.70;1.53;;;;;;;;;;5030688;28;20091;-58
2024/02/12 13:33:07;;;;;;;4.57;1.50;;;;;;;;;;5027417;28;20857;-58
2024/02/12 13:35:32;;;;;;;4.25;1.90;;;;;;;;;;5027297;28;20025;-59
2024/02/12 13:37:58;;;;;;;4.40;1.90;;;;;;;;;;5031820;28;20096;-58
2024/02/12 13:40:27;;;;;;;5.07;1.90;;;;;;;;;;5030974;28;20378;-58
2024/02/12 13:42:52;;;;;;;4.97;2.00;;;;;;;;;;5030908;28;20029;-58
2024/02/12 13:45:17;;;;;;;6.70;2.10;;;;;;;;;;5032563;28;20079;-58
2024/02/12 13:47:44;;;;;;;4.27;1.87;;;;;;;;;;5032084;28;20027;-58
2024/02/12 13:50:11;;;;;;;4.05;1.70;;;;;;;;;;5030682;28;20079;-59
2024/02/12 13:52:37;;;;;;;5.78;1.98;;;;;;;;;;5031595;28;20030;-59
2024/02/12 13:55:06;;;;;;;4.65;2.00;;;;;;;;;;5032994;28;20656;-58
2024/02/12 13:57:31;;;;;;;4.07;1.75;;;;;;;;;;5036790;28;20369;-58
2024/02/12 13:59:58;;;;;;;6.07;1.95;;;;;;;;;;5038277;28;20025;-58
2024/02/12 14:02:24;;;;;;;5.47;2.22;;;;;;;;;;5038024;28;20029;-59
2024/02/12 14:04:49;;;;;;;4.68;2.00;;;;;;;;;;5038131;28;20132;-59
2024/02/12 14:07:15;;;;;;;4.72;1.85;;;;;;;;;;5042159;28;20029;-58
2024/02/12 14:09:40;;;;;;;4.45;1.90;;;;;;;;;;5042060;28;20421;-58
2024/02/12 14:12:06;;;;;;;5.20;2.30;;;;;;;;;;5039530;28;20039;-58
2024/02/12 14:14:32;;;;;;;4.80;2.20;;;;;;;;;;5035370;28;20052;-58
2024/02/12 14:16:57;;;;;;;5.40;2.40;;;;;;;;;;5019062;28;20041;-58
2024/02/12 14:19:22;;;;;;;5.82;2.38;;;;;;;;;;5022793;28;20060;-58
2024/02/12 14:21:47;;;;;;;6.23;2.37;;;;;;;;;;5039480;28;20477;-57
2024/02/12 14:24:12;;;;;;;5.27;2.10;;;;;;;;;;5029451;28;20097;-57
2024/02/12 14:26:41;;;;;;;5.28;2.00;;;;;;;;;;5020862;28;20107;-57
2024/02/12 14:29:08;;;;;;;4.82;2.25;;;;;;;;;;5036494;28;20151;-58
2024/02/12 14:31:33;;;;;;;7.18;2.35;;;;;;;;;;5037303;28;20079;-59
2024/02/12 14:33:58;;;;;;;4.72;2.20;;;;;;;;;;5037767;28;20033;-58
2024/02/12 14:36:26;;;;;;;4.90;2.25;;;;;;;;;;5047900;28;20504;-58
2024/02/12 14:38:51;;;;;;;4.22;2.10;;;;;;;;;;5042189;28;20025;-58
2024/02/12 14:41:16;;;;;;;5.10;2.07;;;;;;;;;;5048150;28;20035;-58
2024/02/12 14:43:41;;;;;;;4.43;1.93;;;;;;;;;;5050246;28;20035;-58
2024/02/12 14:46:07;;;;;;;3.85;1.77;;;;;;;;;;5035791;28;20048;-64
2024/02/12 14:48:32;;;;;;;5.57;2.15;;;;;;;;;;5048390;28;20022;-59
2024/02/12 14:50:58;;;;;;;3.55;1.67;;;;;;;;;;5047816;28;20033;-60
2024/02/12 14:53:24;;;;;;;4.55;1.80;;;;;;;;;;5044014;28;20055;-58